sensor_id;sensor_type;location;lat;lon;timestamp;pressure;altitude;pressure_sealevel;temperature;humidity
62122;BME280;48108;47.532;19.084;2023-08-12T05:19:20;101100.78;;;16.18;100.00
62122;BME280;48108;47.532;19.084;2023-08-12T05:22:25;101104.84;;;16.07;100.00
62122;BME280;48108;47.532;19.084;2023-08-12T05:25:28;101105.81;;;16.00;100.00
62122;BME280;48108;47.532;19.084;2023-08-12T05:28:31;101103.88;;;15.94;100.00
62122;BME280;48108;47.532;19.084;2023-08-12T05:31:33;101102.91;;;16.01;100.00
62122;BME280;48108;47.532;19.084;2023-08-12T05:34:36;101106.28;;;16.03;100.00
62122;BME280;48108;47.532;19.084;2023-08-12T05:37:39;101107.03;;;16.19;100.00
62122;BME280;48108;47.532;19.084;2023-08-12T05:40:42;101109.41;;;16.28;100.00
62122;BME280;48108;47.532;19.084;2023-08-12T05:43:45;101109.97;;;16.52;100.00
62122;BME280;48108;47.532;19.084;2023-08-12T05:46:47;101113.94;;;16.77;100.00
62122;BME280;48108;47.532;19.084;2023-08-12T05:49:50;101110.28;;;16.98;100.00
62122;BME280;48108;47.532;19.084;2023-08-12T05:52:53;101109.78;;;17.23;100.00
62122;BME280;48108;47.532;19.084;2023-08-12T05:55:56;101103.75;;;17.41;100.00
62122;BME280;48108;47.532;19.084;2023-08-12T05:58:59;101103.38;;;17.57;100.00
62122;BME280;48108;47.532;19.084;2023-08-12T06:02:01;101104.47;;;17.76;100.00
62122;BME280;48108;47.532;19.084;2023-08-12T06:05:05;101093.81;;;17.95;100.00
62122;BME280;48108;47.532;19.084;2023-08-12T06:08:08;101101.37;;;18.12;100.00
62122;BME280;48108;47.532;19.084;2023-08-12T06:11:11;101101.37;;;18.26;100.00
62122;BME280;48108;47.532;19.084;2023-08-12T06:14:14;101097.16;;;18.36;100.00
62122;BME280;48108;47.532;19.084;2023-08-12T06:17:17;101098.16;;;18.62;100.00
62122;BME280;48108;47.532;19.084;2023-08-12T06:20:20;101096.03;;;18.77;100.00
62122;BME280;48108;47.532;19.084;2023-08-12T06:23:23;101095.78;;;18.92;100.00
62122;BME280;48108;47.532;19.084;2023-08-12T06:26:29;101090.69;;;19.09;100.00
62122;BME280;48108;47.532;19.084;2023-08-12T06:29:32;101103.06;;;19.12;98.24
62122;BME280;48108;47.532;19.084;2023-08-12T06:32:35;101092.69;;;19.27;98.49
62122;BME280;48108;47.532;19.084;2023-08-12T06:35:38;101096.59;;;19.51;96.34
62122;BME280;48108;47.532;19.084;2023-08-12T06:38:42;101088.81;;;19.48;97.99
62122;BME280;48108;47.532;19.084;2023-08-12T06:41:45;101092.09;;;19.57;97.96
62122;BME280;48108;47.532;19.084;2023-08-12T06:44:55;101090.34;;;19.76;98.04
62122;BME280;48108;47.532;19.084;2023-08-12T06:47:58;101079.75;;;19.86;97.34
62122;BME280;48108;47.532;19.084;2023-08-12T06:51:01;101085.22;;;19.86;96.61
62122;BME280;48108;47.532;19.084;2023-08-12T06:54:09;101086.28;;;19.85;95.72
62122;BME280;48108;47.532;19.084;2023-08-12T06:57:12;101098.34;;;20.02;96.14
62122;BME280;48108;47.532;19.084;2023-08-12T07:00:15;101084.78;;;20.14;93.38
62122;BME280;48108;47.532;19.084;2023-08-12T07:03:18;101082.69;;;20.34;94.37
62122;BME280;48108;47.532;19.084;2023-08-12T07:06:22;101083.31;;;20.36;92.03
62122;BME280;48108;47.532;19.084;2023-08-12T07:09:24;101083.16;;;20.50;90.22
62122;BME280;48108;47.532;19.084;2023-08-12T07:12:28;101087.31;;;20.59;89.98
62122;BME280;48108;47.532;19.084;2023-08-12T07:15:30;101089.25;;;20.77;88.49
62122;BME280;48108;47.532;19.084;2023-08-12T07:18:33;101087.03;;;20.86;88.10
62122;BME280;48108;47.532;19.084;2023-08-12T07:21:36;101086.41;;;21.02;87.45
62122;BME280;48108;47.532;19.084;2023-08-12T07:24:39;101083.00;;;21.06;86.46
62122;BME280;48108;47.532;19.084;2023-08-12T07:27:42;101088.37;;;21.13;86.53
62122;BME280;48108;47.532;19.084;2023-08-12T07:30:45;101086.91;;;21.47;85.55
62122;BME280;48108;47.532;19.084;2023-08-12T07:33:47;101082.84;;;21.32;83.77
62122;BME280;48108;47.532;19.084;2023-08-12T07:36:50;101091.06;;;21.50;84.72
62122;BME280;48108;47.532;19.084;2023-08-12T07:39:53;101082.06;;;21.73;83.91
62122;BME280;48108;47.532;19.084;2023-08-12T07:42:56;101087.38;;;22.10;82.40
62122;BME280;48108;47.532;19.084;2023-08-12T07:45:59;101085.03;;;22.25;79.44
62122;BME280;48108;47.532;19.084;2023-08-12T07:49:11;101082.88;;;22.15;77.77
62122;BME280;48108;47.532;19.084;2023-08-12T07:52:14;101080.28;;;22.44;77.96
62122;BME280;48108;47.532;19.084;2023-08-12T07:55:17;101080.63;;;22.48;78.67
62122;BME280;48108;47.532;19.084;2023-08-12T07:58:20;101074.41;;;22.64;78.59
62122;BME280;48108;47.532;19.084;2023-08-12T08:01:23;101074.13;;;22.77;77.41
62122;BME280;48108;47.532;19.084;2023-08-12T08:04:27;101077.19;;;22.93;75.51
62122;BME280;48108;47.532;19.084;2023-08-12T08:07:29;101083.44;;;22.88;74.37
62122;BME280;48108;47.532;19.084;2023-08-12T08:10:32;101077.41;;;23.15;73.94
62122;BME280;48108;47.532;19.084;2023-08-12T08:13:35;101075.00;;;23.18;73.88
62122;BME280;48108;47.532;19.084;2023-08-12T08:16:38;101072.56;;;23.34;71.98
62122;BME280;48108;47.532;19.084;2023-08-12T08:19:44;101067.59;;;23.47;71.61
62122;BME280;48108;47.532;19.084;2023-08-12T08:22:47;101073.19;;;23.52;68.53
62122;BME280;48108;47.532;19.084;2023-08-12T08:25:50;101067.69;;;23.52;68.20
62122;BME280;48108;47.532;19.084;2023-08-12T08:28:53;101072.69;;;23.84;67.89
62122;BME280;48108;47.532;19.084;2023-08-12T08:31:55;101070.59;;;23.91;65.55
62122;BME280;48108;47.532;19.084;2023-08-12T08:34:58;101068.69;;;24.09;64.33
62122;BME280;48108;47.532;19.084;2023-08-12T08:38:01;101066.03;;;24.14;64.48
62122;BME280;48108;47.532;19.084;2023-08-12T08:41:06;101062.75;;;24.17;66.31
62122;BME280;48108;47.532;19.084;2023-08-12T08:44:12;101062.09;;;24.43;66.50
62122;BME280;48108;47.532;19.084;2023-08-12T08:47:17;101060.87;;;24.56;64.32
62122;BME280;48108;47.532;19.084;2023-08-12T08:50:22;101061.84;;;24.67;66.72
62122;BME280;48108;47.532;19.084;2023-08-12T08:53:25;101059.50;;;24.76;67.12
62122;BME280;48108;47.532;19.084;2023-08-12T08:56:28;101060.31;;;24.54;60.82
62122;BME280;48108;47.532;19.084;2023-08-12T08:59:31;101050.25;;;24.65;64.03
62122;BME280;48108;47.532;19.084;2023-08-12T09:02:34;101056.03;;;24.63;60.14
62122;BME280;48108;47.532;19.084;2023-08-12T09:05:39;101061.72;;;24.79;60.88
62122;BME280;48108;47.532;19.084;2023-08-12T09:08:45;101056.16;;;24.96;60.20
62122;BME280;48108;47.532;19.084;2023-08-12T09:11:48;101060.53;;;25.14;62.24
62122;BME280;48108;47.532;19.084;2023-08-12T09:14:51;101055.59;;;25.43;59.94
62122;BME280;48108;47.532;19.084;2023-08-12T09:17:54;101043.63;;;25.59;56.03
62122;BME280;48108;47.532;19.084;2023-08-12T09:20:57;101042.84;;;25.64;55.76
62122;BME280;48108;47.532;19.084;2023-08-12T09:24:03;101037.84;;;25.88;60.32
62122;BME280;48108;47.532;19.084;2023-08-12T09:27:07;101041.50;;;25.98;56.40
62122;BME280;48108;47.532;19.084;2023-08-12T09:30:10;101046.00;;;26.10;55.92
62122;BME280;48108;47.532;19.084;2023-08-12T09:33:15;101045.81;;;26.21;51.90
62122;BME280;48108;47.532;19.084;2023-08-12T09:36:21;101038.75;;;26.41;52.06
62122;BME280;48108;47.532;19.084;2023-08-12T09:39:23;101034.56;;;26.38;53.38
62122;BME280;48108;47.532;19.084;2023-08-12T09:42:28;101032.00;;;26.64;54.86
62122;BME280;48108;47.532;19.084;2023-08-12T09:45:32;101032.59;;;26.71;52.37
62122;BME280;48108;47.532;19.084;2023-08-12T09:48:35;101023.44;;;26.65;51.02
62122;BME280;48108;47.532;19.084;2023-08-12T09:51:38;101018.44;;;26.57;51.02
62122;BME280;48108;47.532;19.084;2023-08-12T09:54:44;101022.63;;;26.70;53.94
62122;BME280;48108;47.532;19.084;2023-08-12T09:57:54;101016.41;;;27.00;48.91
62122;BME280;48108;47.532;19.084;2023-08-12T10:00:57;101013.31;;;26.86;47.50
62122;BME280;48108;47.532;19.084;2023-08-12T10:04:01;101014.47;;;27.06;50.76
62122;BME280;48108;47.532;19.084;2023-08-12T10:07:09;101004.22;;;27.01;49.22
62122;BME280;48108;47.532;19.084;2023-08-12T10:10:13;101004.78;;;27.08;48.63
62122;BME280;48108;47.532;19.084;2023-08-12T10:13:16;100997.97;;;27.47;49.76
62122;BME280;48108;47.532;19.084;2023-08-12T10:16:19;100995.50;;;27.76;48.16
62122;BME280;48108;47.532;19.084;2023-08-12T10:19:23;100995.75;;;27.74;44.18
62122;BME280;48108;47.532;19.084;2023-08-12T10:22:29;100991.88;;;27.96;45.98
62122;BME280;48108;47.532;19.084;2023-08-12T10:25:33;100997.62;;;28.30;42.78
62122;BME280;48108;47.532;19.084;2023-08-12T10:28:37;100989.37;;;28.10;43.08
62122;BME280;48108;47.532;19.084;2023-08-12T10:31:40;100991.88;;;27.96;41.58
62122;BME280;48108;47.532;19.084;2023-08-12T10:34:43;100987.19;;;27.86;40.92
62122;BME280;48108;47.532;19.084;2023-08-12T10:37:49;100990.22;;;28.00;41.22
62122;BME280;48108;47.532;19.084;2023-08-12T10:41:16;100980.19;;;28.30;40.40
62122;BME280;48108;47.532;19.084;2023-08-12T10:44:20;100975.16;;;28.47;39.25
62122;BME280;48108;47.532;19.084;2023-08-12T10:47:24;100970.38;;;28.68;38.36
62122;BME280;48108;47.532;19.084;2023-08-12T10:50:27;100970.38;;;28.68;37.22
62122;BME280;48108;47.532;19.084;2023-08-12T10:53:33;100964.69;;;28.93;38.80
62122;BME280;48108;47.532;19.084;2023-08-12T11:00:10;100963.97;;;29.91;33.91
62122;BME280;48108;47.532;19.084;2023-08-12T11:03:14;100962.41;;;30.33;36.40
62122;BME280;48108;47.532;19.084;2023-08-12T11:06:19;100962.97;;;30.97;34.47
62122;BME280;48108;47.532;19.084;2023-08-12T11:09:21;100956.88;;;31.13;31.65
62122;BME280;48108;47.532;19.084;2023-08-12T11:12:33;100954.28;;;31.55;30.04
62122;BME280;48108;47.532;19.084;2023-08-12T11:15:37;100949.25;;;31.71;31.02
62122;BME280;48108;47.532;19.084;2023-08-12T11:18:41;100949.34;;;31.98;27.56
62122;BME280;48108;47.532;19.084;2023-08-12T11:21:47;100937.38;;;32.12;28.34
62122;BME280;48108;47.532;19.084;2023-08-12T11:24:50;100934.16;;;32.32;29.32
62122;BME280;48108;47.532;19.084;2023-08-12T11:27:53;100930.88;;;32.58;30.29
62122;BME280;48108;47.532;19.084;2023-08-12T11:30:56;100930.28;;;33.19;30.18
62122;BME280;48108;47.532;19.084;2023-08-12T11:33:59;100926.91;;;33.76;27.46
62122;BME280;48108;47.532;19.084;2023-08-12T11:37:03;100924.00;;;33.90;27.56
62122;BME280;48108;47.532;19.084;2023-08-12T11:40:09;100925.75;;;34.57;29.01
62122;BME280;48108;47.532;19.084;2023-08-12T11:43:14;100929.69;;;35.52;26.56
62122;BME280;48108;47.532;19.084;2023-08-12T11:46:16;100915.34;;;36.68;24.47
62122;BME280;48108;47.532;19.084;2023-08-12T11:49:19;100912.56;;;36.68;23.95
62122;BME280;48108;47.532;19.084;2023-08-12T11:52:22;100915.75;;;36.58;23.14
62122;BME280;48108;47.532;19.084;2023-08-12T11:55:26;100912.63;;;37.35;23.59
62122;BME280;48108;47.532;19.084;2023-08-12T11:58:36;100908.75;;;37.60;23.50
62122;BME280;48108;47.532;19.084;2023-08-12T12:01:54;100907.38;;;38.65;24.08
62122;BME280;48108;47.532;19.084;2023-08-12T12:04:57;100904.59;;;38.93;22.11
62122;BME280;48108;47.532;19.084;2023-08-12T12:08:00;100899.31;;;40.62;20.05
62122;BME280;48108;47.532;19.084;2023-08-12T12:11:06;100891.28;;;41.88;18.87
62122;BME280;48108;47.532;19.084;2023-08-12T12:14:10;100888.53;;;41.68;18.93
62122;BME280;48108;47.532;19.084;2023-08-12T12:17:14;100884.84;;;40.28;19.84
62122;BME280;48108;47.532;19.084;2023-08-12T12:20:18;100877.91;;;41.00;19.65
62122;BME280;48108;47.532;19.084;2023-08-12T12:23:21;100879.28;;;41.95;19.37
62122;BME280;48108;47.532;19.084;2023-08-12T12:26:24;100875.03;;;41.58;19.33
62122;BME280;48108;47.532;19.084;2023-08-12T12:29:28;100874.63;;;41.83;18.34
62122;BME280;48108;47.532;19.084;2023-08-12T12:32:31;100872.00;;;42.20;18.21
62122;BME280;48108;47.532;19.084;2023-08-12T12:35:37;100873.63;;;42.21;18.21
62122;BME280;48108;47.532;19.084;2023-08-12T12:38:58;100864.59;;;41.62;18.94
62122;BME280;48108;47.532;19.084;2023-08-12T12:42:01;100861.88;;;42.76;17.67
62122;BME280;48108;47.532;19.084;2023-08-12T12:45:04;100855.25;;;42.98;17.29
62122;BME280;48108;47.532;19.084;2023-08-12T12:48:07;100849.19;;;43.00;19.08
62122;BME280;48108;47.532;19.084;2023-08-12T12:51:11;100855.41;;;44.71;16.91
62122;BME280;48108;47.532;19.084;2023-08-12T12:54:14;100848.66;;;45.22;16.29
62122;BME280;48108;47.532;19.084;2023-08-12T12:57:17;100847.91;;;43.72;17.04
62122;BME280;48108;47.532;19.084;2023-08-12T13:00:20;100841.84;;;42.92;17.30
62122;BME280;48108;47.532;19.084;2023-08-12T13:03:23;100842.28;;;43.79;16.00
62122;BME280;48108;47.532;19.084;2023-08-12T13:06:26;100845.53;;;43.81;17.30
62122;BME280;48108;47.532;19.084;2023-08-12T13:09:29;100838.91;;;45.16;16.78
62122;BME280;48108;47.532;19.084;2023-08-12T13:12:33;100830.81;;;46.08;15.31
62122;BME280;48108;47.532;19.084;2023-08-12T13:15:36;100827.56;;;45.45;14.99
62122;BME280;48108;47.532;19.084;2023-08-12T13:18:39;100828.31;;;44.92;15.85
62122;BME280;48108;47.532;19.084;2023-08-12T13:21:42;100827.13;;;44.12;17.73
62122;BME280;48108;47.532;19.084;2023-08-12T13:24:45;100819.84;;;45.96;14.78
62122;BME280;48108;47.532;19.084;2023-08-12T13:27:48;100818.44;;;46.57;16.09
62122;BME280;48108;47.532;19.084;2023-08-12T13:30:51;100820.53;;;47.20;13.93
62122;BME280;48108;47.532;19.084;2023-08-12T13:33:54;100823.44;;;47.13;14.51
62122;BME280;48108;47.532;19.084;2023-08-12T13:36:57;100818.84;;;47.26;14.85
62122;BME280;48108;47.532;19.084;2023-08-12T13:40:00;100813.16;;;47.71;14.41
62122;BME280;48108;47.532;19.084;2023-08-12T13:43:03;100802.56;;;46.56;15.50
62122;BME280;48108;47.532;19.084;2023-08-12T13:46:06;100808.09;;;45.90;15.54
62122;BME280;48108;47.532;19.084;2023-08-12T13:49:09;100804.59;;;44.45;16.55
62122;BME280;48108;47.532;19.084;2023-08-12T13:52:12;100793.88;;;45.43;16.03
62122;BME280;48108;47.532;19.084;2023-08-12T13:55:15;100795.84;;;45.00;16.33
62122;BME280;48108;47.532;19.084;2023-08-12T13:58:17;100804.81;;;45.74;16.07
62122;BME280;48108;47.532;19.084;2023-08-12T14:01:21;100792.59;;;45.87;16.06
62122;BME280;48108;47.532;19.084;2023-08-12T14:04:24;100796.81;;;43.65;16.98
62122;BME280;48108;47.532;19.084;2023-08-12T14:07:27;100789.94;;;43.21;17.92
62122;BME280;48108;47.532;19.084;2023-08-12T14:10:30;100789.13;;;42.84;18.05
62122;BME280;48108;47.532;19.084;2023-08-12T14:13:32;100782.06;;;43.48;18.02
62122;BME280;48108;47.532;19.084;2023-08-12T14:16:35;100783.75;;;42.41;18.11
62122;BME280;48108;47.532;19.084;2023-08-12T14:19:40;100774.28;;;41.04;19.55
62122;BME280;48108;47.532;19.084;2023-08-12T14:22:44;100776.78;;;38.01;22.28
62122;BME280;48108;47.532;19.084;2023-08-12T14:25:47;100770.28;;;35.76;26.87
62122;BME280;48108;47.532;19.084;2023-08-12T14:28:50;100777.88;;;34.56;28.07
62122;BME280;48108;47.532;19.084;2023-08-12T14:31:52;100774.34;;;32.95;29.81
62122;BME280;48108;47.532;19.084;2023-08-12T14:34:55;100772.31;;;32.42;31.31
62122;BME280;48108;47.532;19.084;2023-08-12T14:37:58;100774.50;;;31.95;31.75
62122;BME280;48108;47.532;19.084;2023-08-12T14:41:02;100767.97;;;31.31;32.48
62122;BME280;48108;47.532;19.084;2023-08-12T14:44:05;100768.84;;;31.45;32.50
62122;BME280;48108;47.532;19.084;2023-08-12T14:47:08;100765.28;;;31.26;33.22
62122;BME280;48108;47.532;19.084;2023-08-12T14:50:11;100764.50;;;30.73;33.92
62122;BME280;48108;47.532;19.084;2023-08-12T14:53:14;100763.59;;;30.45;34.53
62122;BME280;48108;47.532;19.084;2023-08-12T14:56:16;100757.56;;;30.38;34.31
